createdAt,value
2022-12-27T00:00:57.574Z,3.94
2022-12-27T00:03:59.729Z,3.87
2022-12-27T00:07:01.404Z,3.84
2022-12-27T00:10:04.180Z,3.87
2022-12-27T00:13:05.839Z,4.01
2022-12-27T00:16:11.068Z,3.89
2022-12-27T00:19:12.895Z,3.80
2022-12-27T00:22:14.594Z,3.80
2022-12-27T00:25:16.409Z,3.81
2022-12-27T00:28:18.179Z,3.80
2022-12-27T00:31:21.411Z,4.13
2022-12-27T00:34:23.099Z,3.94
2022-12-27T00:37:24.719Z,3.89
2022-12-27T00:40:26.386Z,3.90
2022-12-27T00:43:28.036Z,3.90
2022-12-27T00:46:29.855Z,3.89
2022-12-27T00:49:31.573Z,3.85
2022-12-27T00:52:33.228Z,3.80
2022-12-27T00:55:35.581Z,3.80
2022-12-27T00:58:40.787Z,3.82
2022-12-27T01:01:43.163Z,3.81
2022-12-27T01:04:44.876Z,3.83
2022-12-27T01:07:46.536Z,3.88
2022-12-27T01:10:48.216Z,3.93
2022-12-27T01:13:50.334Z,4.07
2022-12-27T01:16:52.043Z,4.04
2022-12-27T01:19:53.694Z,3.98
2022-12-27T01:22:55.357Z,4.10
2022-12-27T01:26:05.569Z,4.03
2022-12-27T01:29:07.248Z,4.00
2022-12-27T01:32:09.223Z,4.00
2022-12-27T01:35:10.946Z,4.07
2022-12-27T01:38:12.573Z,4.09
2022-12-27T01:41:36.259Z,4.01
2022-12-27T01:44:38.414Z,4.11
2022-12-27T01:47:42.745Z,4.17
2022-12-27T01:50:44.321Z,4.35
2022-12-27T01:53:49.351Z,4.38
2022-12-27T01:56:51.093Z,4.16
2022-12-27T01:59:53.378Z,4.37
2022-12-27T02:02:55.325Z,4.28
2022-12-27T02:05:59.058Z,4.63
2022-12-27T02:09:42.573Z,4.48
2022-12-27T02:12:44.453Z,4.36
2022-12-27T02:15:46.100Z,4.24
2022-12-27T02:18:47.833Z,4.10
2022-12-27T02:22:54.698Z,4.17
2022-12-27T02:26:32.861Z,4.45
2022-12-27T02:29:57.116Z,4.22
2022-12-27T02:33:04.776Z,4.12
2022-12-27T02:36:13.137Z,4.23
2022-12-27T02:39:16.171Z,4.50
2022-12-27T02:42:38.383Z,4.43
2022-12-27T02:46:10.196Z,4.37
2022-12-27T02:50:06.024Z,4.42
2022-12-27T02:53:15.918Z,4.43
2022-12-27T02:56:52.068Z,4.77
2022-12-27T03:00:23.476Z,4.70
2022-12-27T03:03:35.526Z,4.77
2022-12-27T03:06:46.494Z,4.85
2022-12-27T03:10:45.210Z,5.06
2022-12-27T03:14:11.588Z,5.21
2022-12-27T03:17:41.113Z,4.83
2022-12-27T03:21:03.901Z,5.17
2022-12-27T03:24:26.065Z,5.22
2022-12-27T03:27:32.573Z,5.01
2022-12-27T03:30:55.239Z,5.35
2022-12-27T03:34:29.859Z,5.31
2022-12-27T03:37:54.761Z,4.87
2022-12-27T03:41:20.424Z,5.13
2022-12-27T03:44:25.210Z,5.30
2022-12-27T03:47:47.966Z,5.24
2022-12-27T03:51:05.153Z,5.02
2022-12-27T03:54:13.323Z,5.02
2022-12-27T03:57:17.831Z,5.13
2022-12-27T04:00:19.641Z,5.29
2022-12-27T04:03:21.402Z,5.36
2022-12-27T04:06:23.199Z,5.40
2022-12-27T04:09:43.776Z,5.41
2022-12-27T04:13:04.266Z,5.48
2022-12-27T04:16:24.650Z,5.44
2022-12-27T04:19:44.831Z,5.57
2022-12-27T04:23:05.450Z,5.59
2022-12-27T04:26:26.077Z,5.55
2022-12-27T04:29:46.439Z,5.62
2022-12-27T04:33:06.497Z,5.32
2022-12-27T04:36:08.735Z,5.34
2022-12-27T04:39:10.540Z,5.21
2022-12-27T04:42:47.623Z,5.06
2022-12-27T04:46:07.994Z,4.93
2022-12-27T04:49:39.235Z,4.89
2022-12-27T04:52:59.827Z,4.77
2022-12-27T04:56:01.788Z,4.72
2022-12-27T04:59:21.990Z,4.64
2022-12-27T05:02:24.060Z,4.66
2022-12-27T05:05:26.136Z,4.63
2022-12-27T05:08:47.897Z,4.57
2022-12-27T05:12:08.050Z,4.37
2022-12-27T05:15:09.882Z,4.33
2022-12-27T05:18:11.629Z,4.42
2022-12-27T05:21:13.412Z,4.42
2022-12-27T05:24:33.473Z,4.36
2022-12-27T05:27:35.149Z,4.36
2022-12-27T05:30:38.559Z,4.37
2022-12-27T05:33:40.222Z,4.39
2022-12-27T05:36:41.904Z,4.43
2022-12-27T05:39:43.626Z,4.38
2022-12-27T05:42:45.347Z,4.37
2022-12-27T05:45:47.023Z,4.43
2022-12-27T05:48:49.025Z,4.49
2022-12-27T05:51:50.777Z,4.60
2022-12-27T05:54:52.442Z,4.68
2022-12-27T05:57:54.605Z,4.67
2022-12-27T06:00:56.295Z,4.68
2022-12-27T06:03:57.979Z,4.61
2022-12-27T06:06:59.720Z,4.49
2022-12-27T06:10:01.388Z,4.53
2022-12-27T06:13:04.594Z,4.48
2022-12-27T06:16:08.195Z,4.46
2022-12-27T06:19:09.898Z,4.43
2022-12-27T06:22:11.563Z,4.83
2022-12-27T06:25:14.515Z,5.02
2022-12-27T06:28:16.271Z,5.38
2022-12-27T06:31:19.940Z,5.45
2022-12-27T06:34:21.719Z,5.47
2022-12-27T06:37:23.461Z,5.44
2022-12-27T06:40:25.126Z,5.44
2022-12-27T06:43:26.769Z,5.53
2022-12-27T06:46:28.552Z,5.59
2022-12-27T06:49:30.222Z,5.67
2022-12-27T06:52:31.988Z,5.63
2022-12-27T06:55:34.735Z,5.60
2022-12-27T06:58:36.606Z,5.59
2022-12-27T07:01:38.385Z,5.63
2022-12-27T07:04:40.123Z,5.77
2022-12-27T07:07:41.802Z,5.86
2022-12-27T07:10:43.446Z,6.17
2022-12-27T07:13:47.650Z,6.13
2022-12-27T07:16:50.061Z,6.17
2022-12-27T07:19:51.799Z,6.55
2022-12-27T07:22:53.529Z,6.87
2022-12-27T07:25:55.166Z,6.50
2022-12-27T07:28:59.698Z,6.75
2022-12-27T07:32:01.359Z,6.51
2022-12-27T07:35:03.403Z,6.49
2022-12-27T07:38:05.040Z,6.53
2022-12-27T07:41:06.775Z,6.73
2022-12-27T07:44:09.868Z,7.21
2022-12-27T07:47:11.532Z,7.21
2022-12-27T07:50:13.202Z,7.25
2022-12-27T07:53:14.836Z,7.21
2022-12-27T07:56:25.871Z,7.32
2022-12-27T07:59:28.074Z,7.45
2022-12-27T08:02:29.867Z,7.57
2022-12-27T08:05:31.672Z,7.60
2022-12-27T08:08:43.153Z,7.54
2022-12-27T08:11:44.881Z,7.56
2022-12-27T08:14:46.671Z,7.58
2022-12-27T08:17:48.346Z,7.60
2022-12-27T08:20:50.548Z,7.77
2022-12-27T08:23:52.260Z,8.05
2022-12-27T08:26:53.973Z,8.55
2022-12-27T08:29:55.694Z,9.17
2022-12-27T08:32:57.684Z,9.57
2022-12-27T08:36:28.658Z,9.95
2022-12-27T08:39:27.964Z,10.16
2022-12-27T08:42:29.710Z,10.02
2022-12-27T08:45:31.493Z,10.22
2022-12-27T08:48:33.722Z,9.55
2022-12-27T08:51:40.640Z,8.90
2022-12-27T08:54:42.846Z,8.70
2022-12-27T08:57:44.539Z,8.66
2022-12-27T09:00:46.246Z,8.61
2022-12-27T09:03:48.043Z,8.57
2022-12-27T09:06:49.844Z,8.36
2022-12-27T09:09:51.486Z,9.50
2022-12-27T09:12:53.264Z,11.07
2022-12-27T09:15:55.037Z,10.42
2022-12-27T09:18:58.560Z,10.09
2022-12-27T09:22:00.288Z,9.61
2022-12-27T09:25:02.173Z,9.70
2022-12-27T09:28:04.138Z,9.65
2022-12-27T09:31:07.709Z,9.38
2022-12-27T09:34:11.434Z,9.12
2022-12-27T09:37:13.176Z,9.21
2022-12-27T09:40:16.771Z,9.13
2022-12-27T09:43:27.525Z,9.04
2022-12-27T09:46:55.451Z,8.94
2022-12-27T09:50:02.114Z,8.67
2022-12-27T09:53:24.015Z,8.63
2022-12-27T09:56:47.349Z,8.66
2022-12-27T09:59:58.206Z,8.72
2022-12-27T10:03:04.839Z,8.80
2022-12-27T10:06:39.449Z,8.96
2022-12-27T10:09:58.915Z,9.10
2022-12-27T10:13:06.582Z,9.37
2022-12-27T10:16:19.966Z,9.55
2022-12-27T10:19:28.637Z,9.59
2022-12-27T10:22:45.030Z,9.67
2022-12-27T10:25:47.292Z,9.41
2022-12-27T10:29:02.584Z,9.41
2022-12-27T10:32:04.591Z,9.28
2022-12-27T10:35:06.843Z,9.04
2022-12-27T10:38:11.510Z,8.93
2022-12-27T10:41:20.098Z,8.77
2022-12-27T10:44:23.685Z,8.67
2022-12-27T10:47:26.872Z,8.48
2022-12-27T10:50:29.977Z,8.23
2022-12-27T10:53:35.696Z,7.97
2022-12-27T10:56:42.431Z,7.96
2022-12-27T10:59:44.086Z,8.08
2022-12-27T11:02:57.692Z,8.13
2022-12-27T11:06:05.265Z,8.27
2022-12-27T11:09:25.982Z,8.20
2022-12-27T11:12:32.274Z,8.16
2022-12-27T11:15:37.508Z,8.20
2022-12-27T11:18:46.156Z,8.12
2022-12-27T11:21:48.079Z,8.18
2022-12-27T11:24:52.793Z,8.20
2022-12-27T11:28:27.160Z,8.21
2022-12-27T11:31:28.877Z,8.20
2022-12-27T11:34:34.151Z,8.11
2022-12-27T11:37:40.100Z,8.12
2022-12-27T11:40:42.337Z,8.10
2022-12-27T11:44:01.941Z,8.16
2022-12-27T11:47:27.190Z,8.21
2022-12-27T11:50:28.793Z,8.21
2022-12-27T11:53:54.224Z,8.22
2022-12-27T11:57:18.124Z,8.25
2022-12-27T12:00:23.746Z,8.10
2022-12-27T12:03:38.739Z,8.07
2022-12-27T12:06:49.682Z,8.07
2022-12-27T12:10:07.293Z,8.09
2022-12-27T12:13:13.258Z,8.02
2022-12-27T12:16:34.045Z,8.00
2022-12-27T12:20:13.862Z,7.94
2022-12-27T12:24:08.229Z,7.96
2022-12-27T12:27:47.628Z,7.82
2022-12-27T12:31:23.091Z,7.73
2022-12-27T12:34:48.516Z,7.63
2022-12-27T12:38:27.877Z,7.65
2022-12-27T12:41:55.403Z,7.60
2022-12-27T12:45:31.842Z,7.45
2022-12-27T12:48:33.437Z,7.43
2022-12-27T12:52:03.982Z,7.41
2022-12-27T12:55:14.719Z,7.37
2022-12-27T12:58:27.186Z,7.37
2022-12-27T13:01:34.592Z,7.13
2022-12-27T13:04:50.288Z,6.99
2022-12-27T13:08:10.049Z,6.95
2022-12-27T13:11:17.404Z,6.90
2022-12-27T13:14:21.555Z,6.94
2022-12-27T13:17:46.779Z,7.03
2022-12-27T13:21:00.369Z,6.89
2022-12-27T13:24:29.828Z,6.85
2022-12-27T13:27:53.541Z,6.82
2022-12-27T13:31:04.482Z,6.73
2022-12-27T13:34:21.188Z,6.70
2022-12-27T13:37:56.681Z,6.62
2022-12-27T13:41:30.572Z,6.60
2022-12-27T13:44:50.845Z,6.56
2022-12-27T13:48:00.451Z,6.53
2022-12-27T13:51:14.216Z,6.46
2022-12-27T13:54:48.197Z,6.35
2022-12-27T13:57:49.822Z,6.21
2022-12-27T14:01:03.556Z,6.09
2022-12-27T14:04:27.037Z,5.97
2022-12-27T14:07:50.306Z,5.93
2022-12-27T14:11:00.584Z,5.82
2022-12-27T14:14:05.436Z,5.76
2022-12-27T14:17:34.791Z,5.68
2022-12-27T14:21:13.821Z,5.65
2022-12-27T14:24:40.244Z,5.60
2022-12-27T14:28:09.762Z,5.52
2022-12-27T14:31:36.420Z,5.48
2022-12-27T14:34:59.668Z,5.38
2022-12-27T14:38:24.719Z,5.21
2022-12-27T14:41:44.803Z,5.07
2022-12-27T14:45:09.258Z,5.01
2022-12-27T14:48:32.782Z,4.82
2022-12-27T14:52:03.663Z,4.67
2022-12-27T14:55:25.500Z,4.80
2022-12-27T14:58:30.080Z,4.72
2022-12-27T15:01:39.461Z,4.46
2022-12-27T15:05:03.748Z,4.38
2022-12-27T15:08:24.156Z,4.24
2022-12-27T15:11:34.510Z,4.13
2022-12-27T15:14:51.466Z,4.16
2022-12-27T15:17:56.046Z,4.14
2022-12-27T15:21:41.447Z,4.15
2022-12-27T15:24:55.567Z,4.06
2022-12-27T15:28:37.660Z,3.83
2022-12-27T15:32:02.999Z,3.87
2022-12-27T15:35:30.342Z,3.75
2022-12-27T15:38:41.131Z,3.52
2022-12-27T15:42:01.992Z,3.12
2022-12-27T15:45:48.079Z,3.16
2022-12-27T15:48:53.837Z,3.26
2022-12-27T15:52:11.698Z,3.15
2022-12-27T15:55:29.735Z,2.97
2022-12-27T15:58:31.471Z,2.79
2022-12-27T16:01:35.296Z,2.71
2022-12-27T16:04:45.879Z,2.77
2022-12-27T16:08:12.617Z,2.62
2022-12-27T16:11:14.568Z,2.69
2022-12-27T16:14:26.812Z,2.56
2022-12-27T16:17:53.671Z,2.43
2022-12-27T16:20:58.426Z,2.41
2022-12-27T16:24:06.276Z,2.42
2022-12-27T16:27:27.464Z,2.34
2022-12-27T16:30:41.340Z,2.16
2022-12-27T16:33:43.066Z,2.31
2022-12-27T16:36:47.673Z,2.15
2022-12-27T16:40:14.038Z,2.33
2022-12-27T16:43:18.766Z,2.51
2022-12-27T16:46:32.944Z,2.56
2022-12-27T16:49:55.474Z,2.50
2022-12-27T16:53:31.751Z,1.97
2022-12-27T16:56:37.015Z,2.07
2022-12-27T17:00:03.428Z,2.14
2022-12-27T17:03:31.385Z,1.81
2022-12-27T17:06:34.369Z,2.12
2022-12-27T17:09:40.531Z,2.17
2022-12-27T17:12:48.978Z,2.23
2022-12-27T17:16:20.239Z,2.21
2022-12-27T17:19:21.967Z,2.05
2022-12-27T17:22:32.130Z,2.01
2022-12-27T17:25:48.744Z,1.99
2022-12-27T17:29:01.501Z,1.94
2022-12-27T17:32:41.405Z,1.86
2022-12-27T17:36:08.104Z,1.66
2022-12-27T17:39:35.736Z,1.54
2022-12-27T17:43:12.557Z,0.77
2022-12-27T17:46:41.005Z,0.73
2022-12-27T17:49:43.398Z,0.61
2022-12-27T17:53:28.525Z,0.89
2022-12-27T17:56:49.759Z,0.87
2022-12-27T17:59:52.449Z,0.72
2022-12-27T18:02:56.937Z,0.75
2022-12-27T18:05:58.754Z,0.93
2022-12-27T18:09:00.816Z,1.08
2022-12-27T18:12:08.975Z,1.05
2022-12-27T18:15:21.167Z,1.06
2022-12-27T18:18:30.586Z,1.05
2022-12-27T18:21:32.615Z,1.12
2022-12-27T18:24:34.645Z,1.02
2022-12-27T18:27:36.887Z,1.00
2022-12-27T18:30:48.511Z,1.06
2022-12-27T18:33:58.342Z,1.00
2022-12-27T18:37:06.657Z,0.90
2022-12-27T18:40:20.617Z,0.64
2022-12-27T18:43:22.464Z,0.98
2022-12-27T18:46:32.545Z,1.08
2022-12-27T18:49:37.161Z,1.24
2022-12-27T18:52:41.526Z,1.25
2022-12-27T18:56:05.832Z,1.35
2022-12-27T18:59:16.745Z,1.27
2022-12-27T19:02:37.886Z,1.26
2022-12-27T19:05:40.380Z,1.16
2022-12-27T19:08:54.582Z,1.14
2022-12-27T19:12:01.173Z,1.12
2022-12-27T19:15:14.378Z,1.12
2022-12-27T19:18:23.876Z,1.05
2022-12-27T19:21:32.739Z,0.92
2022-12-27T19:24:35.038Z,0.93
2022-12-27T19:27:36.802Z,0.75
2022-12-27T19:31:07.064Z,0.70
2022-12-27T19:34:13.671Z,0.59
2022-12-27T19:37:15.965Z,0.56
2022-12-27T19:40:18.593Z,0.66
2022-12-27T19:43:21.347Z,0.69
2022-12-27T19:46:30.549Z,0.73
2022-12-27T19:49:48.179Z,0.64
2022-12-27T19:52:50.795Z,0.68
2022-12-27T19:55:52.767Z,0.61
2022-12-27T19:58:54.622Z,0.55
2022-12-27T20:01:56.600Z,0.56
2022-12-27T20:04:58.508Z,0.70
2022-12-27T20:08:00.549Z,0.98
2022-12-27T20:11:05.296Z,0.92
2022-12-27T20:14:08.281Z,0.30
2022-12-27T20:17:10.505Z,0.70
2022-12-27T20:20:12.663Z,0.68
2022-12-27T20:23:15.376Z,0.48
2022-12-27T20:26:25.001Z,-0.01
2022-12-27T20:29:27.997Z,-0.41
2022-12-27T20:32:30.099Z,-0.36
2022-12-27T20:35:32.607Z,-0.22
2022-12-27T20:38:35.124Z,-0.06
2022-12-27T20:41:37.966Z,0.13
2022-12-27T20:44:40.484Z,0.20
2022-12-27T20:47:42.657Z,0.29
2022-12-27T20:50:44.843Z,0.32
2022-12-27T20:53:49.225Z,0.48
2022-12-27T20:56:51.229Z,0.28
2022-12-27T20:59:52.911Z,0.20
2022-12-27T21:02:55.161Z,0.38
2022-12-27T21:05:57.386Z,-0.49
2022-12-27T21:08:59.065Z,-0.46
2022-12-27T21:12:01.348Z,0.12
2022-12-27T21:15:04.348Z,-0.10
2022-12-27T21:18:06.112Z,-0.07
2022-12-27T21:21:11.776Z,0.12
2022-12-27T21:24:14.380Z,-0.06
2022-12-27T21:27:16.008Z,-0.45
2022-12-27T21:30:17.792Z,-0.75
2022-12-27T21:33:19.497Z,-0.83
2022-12-27T21:36:26.918Z,-0.76
2022-12-27T21:39:28.865Z,-0.57
2022-12-27T21:42:30.508Z,-0.55
2022-12-27T21:45:32.226Z,-0.40
2022-12-27T21:48:34.189Z,-0.14
2022-12-27T21:51:37.254Z,-0.15
2022-12-27T21:54:38.906Z,-0.28
2022-12-27T21:57:40.525Z,-0.26
2022-12-27T22:00:42.211Z,-0.31
2022-12-27T22:03:46.105Z,-0.47
2022-12-27T22:06:48.243Z,-0.51
2022-12-27T22:09:50.044Z,-0.47
2022-12-27T22:12:51.751Z,-0.31
2022-12-27T22:16:01.992Z,-0.25
2022-12-27T22:19:11.666Z,-0.15
2022-12-27T22:22:13.310Z,-0.17
2022-12-27T22:25:14.955Z,-0.23
2022-12-27T22:28:16.632Z,-0.47
2022-12-27T22:31:24.918Z,-0.36
2022-12-27T22:34:26.590Z,-0.25
2022-12-27T22:37:28.276Z,-0.06
2022-12-27T22:40:36.674Z,-0.22
2022-12-27T22:43:48.989Z,0.01
2022-12-27T22:47:24.461Z,-0.16
2022-12-27T22:50:12.465Z,-0.23
2022-12-27T22:53:14.084Z,-0.23
2022-12-27T22:56:26.804Z,-0.22
2022-12-27T22:59:28.461Z,-0.27
2022-12-27T23:02:30.245Z,-0.24
2022-12-27T23:05:32.018Z,-0.40
2022-12-27T23:08:33.852Z,-0.14
2022-12-27T23:11:38.208Z,-0.26
2022-12-27T23:14:40.630Z,-0.13
2022-12-27T23:17:42.413Z,-0.18
2022-12-27T23:21:19.311Z,-0.13
2022-12-27T23:24:06.701Z,-0.17
2022-12-27T23:27:08.360Z,-0.14
2022-12-27T23:30:10.945Z,-0.15
2022-12-27T23:33:12.577Z,-0.23
2022-12-27T23:36:15.089Z,-0.09
2022-12-27T23:39:16.688Z,-0.13
2022-12-27T23:42:18.348Z,-0.23
2022-12-27T23:45:19.969Z,-0.30
2022-12-27T23:48:21.722Z,-0.24
2022-12-27T23:51:24.233Z,-0.22
2022-12-27T23:54:25.916Z,-0.07
2022-12-27T23:57:27.749Z,0.38
